sensor_id;sensor_type;location;lat;lon;timestamp;temperature;humidity
19906;DHT22;10115;50.906;4.438;2023-09-12T00:01:06;20.60;99.90
19906;DHT22;10115;50.906;4.438;2023-09-12T00:03:32;20.60;99.90
19906;DHT22;10115;50.906;4.438;2023-09-12T00:05:59;20.50;99.90
19906;DHT22;10115;50.906;4.438;2023-09-12T00:08:25;20.60;99.90
19906;DHT22;10115;50.906;4.438;2023-09-12T00:13:27;20.60;99.90
19906;DHT22;10115;50.906;4.438;2023-09-12T00:15:53;20.60;99.90
19906;DHT22;10115;50.906;4.438;2023-09-12T00:18:19;20.60;99.90
19906;DHT22;10115;50.906;4.438;2023-09-12T00:20:44;20.60;99.90
19906;DHT22;10115;50.906;4.438;2023-09-12T00:23:10;20.70;99.90
19906;DHT22;10115;50.906;4.438;2023-09-12T00:25:36;20.70;99.90
19906;DHT22;10115;50.906;4.438;2023-09-12T00:28:01;20.80;99.90
19906;DHT22;10115;50.906;4.438;2023-09-12T00:30:27;20.80;99.90
19906;DHT22;10115;50.906;4.438;2023-09-12T00:32:53;20.90;99.90
19906;DHT22;10115;50.906;4.438;2023-09-12T00:35:18;20.80;99.90
19906;DHT22;10115;50.906;4.438;2023-09-12T00:37:44;20.80;99.90
19906;DHT22;10115;50.906;4.438;2023-09-12T00:40:10;20.90;99.90
19906;DHT22;10115;50.906;4.438;2023-09-12T00:42:36;20.90;99.90
19906;DHT22;10115;50.906;4.438;2023-09-12T00:45:01;20.90;99.90
19906;DHT22;10115;50.906;4.438;2023-09-12T00:47:28;21.00;99.90
19906;DHT22;10115;50.906;4.438;2023-09-12T00:49:55;21.00;99.90
19906;DHT22;10115;50.906;4.438;2023-09-12T00:52:25;21.00;99.90
19906;DHT22;10115;50.906;4.438;2023-09-12T00:54:52;21.00;99.90
19906;DHT22;10115;50.906;4.438;2023-09-12T00:57:18;20.90;99.90
19906;DHT22;10115;50.906;4.438;2023-09-12T00:59:44;21.00;99.90
19906;DHT22;10115;50.906;4.438;2023-09-12T01:02:10;20.90;99.90
19906;DHT22;10115;50.906;4.438;2023-09-12T01:04:36;20.90;99.90
19906;DHT22;10115;50.906;4.438;2023-09-12T01:07:03;20.90;99.90
19906;DHT22;10115;50.906;4.438;2023-09-12T01:09:30;20.90;99.90
19906;DHT22;10115;50.906;4.438;2023-09-12T01:11:56;20.70;99.90
19906;DHT22;10115;50.906;4.438;2023-09-12T01:14:22;20.70;99.90
19906;DHT22;10115;50.906;4.438;2023-09-12T01:16:48;20.70;99.90
19906;DHT22;10115;50.906;4.438;2023-09-12T01:19:14;20.50;99.90
19906;DHT22;10115;50.906;4.438;2023-09-12T01:29:36;20.30;99.90
19906;DHT22;10115;50.906;4.438;2023-09-12T01:32:03;20.30;99.90
19906;DHT22;10115;50.906;4.438;2023-09-12T01:34:29;20.20;99.90
19906;DHT22;10115;50.906;4.438;2023-09-12T01:36:54;20.10;99.90
19906;DHT22;10115;50.906;4.438;2023-09-12T01:39:20;20.10;99.90
19906;DHT22;10115;50.906;4.438;2023-09-12T01:41:47;20.10;99.90
19906;DHT22;10115;50.906;4.438;2023-09-12T01:44:14;20.00;99.90
19906;DHT22;10115;50.906;4.438;2023-09-12T01:46:41;20.00;99.90
19906;DHT22;10115;50.906;4.438;2023-09-12T01:49:09;19.90;99.90
19906;DHT22;10115;50.906;4.438;2023-09-12T01:51:35;20.00;99.90
19906;DHT22;10115;50.906;4.438;2023-09-12T01:54:03;20.00;99.90
19906;DHT22;10115;50.906;4.438;2023-09-12T01:56:30;20.00;99.90
19906;DHT22;10115;50.906;4.438;2023-09-12T01:58:57;20.10;99.90
19906;DHT22;10115;50.906;4.438;2023-09-12T02:01:22;20.30;99.90
19906;DHT22;10115;50.906;4.438;2023-09-12T02:03:50;20.50;99.90
19906;DHT22;10115;50.906;4.438;2023-09-12T02:06:15;20.50;99.90
19906;DHT22;10115;50.906;4.438;2023-09-12T02:08:41;20.50;99.90
19906;DHT22;10115;50.906;4.438;2023-09-12T02:11:07;20.30;99.90
19906;DHT22;10115;50.906;4.438;2023-09-12T02:13:32;20.30;99.90
19906;DHT22;10115;50.906;4.438;2023-09-12T02:16:01;20.30;99.90
19906;DHT22;10115;50.906;4.438;2023-09-12T02:18:28;20.40;99.90
19906;DHT22;10115;50.906;4.438;2023-09-12T02:20:54;20.50;99.90
19906;DHT22;10115;50.906;4.438;2023-09-12T02:23:20;20.50;99.90
19906;DHT22;10115;50.906;4.438;2023-09-12T02:25:45;20.50;99.90
19906;DHT22;10115;50.906;4.438;2023-09-12T02:28:11;20.50;99.90
19906;DHT22;10115;50.906;4.438;2023-09-12T02:30:40;20.40;99.90
19906;DHT22;10115;50.906;4.438;2023-09-12T02:33:06;20.30;99.90
19906;DHT22;10115;50.906;4.438;2023-09-12T02:35:32;20.20;99.90
19906;DHT22;10115;50.906;4.438;2023-09-12T02:37:57;20.50;99.90
19906;DHT22;10115;50.906;4.438;2023-09-12T02:40:23;20.60;99.90
19906;DHT22;10115;50.906;4.438;2023-09-12T02:42:49;20.60;99.90
19906;DHT22;10115;50.906;4.438;2023-09-12T02:45:15;20.50;99.90
19906;DHT22;10115;50.906;4.438;2023-09-12T02:47:40;20.40;99.90
19906;DHT22;10115;50.906;4.438;2023-09-12T02:50:09;20.10;99.90
19906;DHT22;10115;50.906;4.438;2023-09-12T02:52:34;19.90;99.90
19906;DHT22;10115;50.906;4.438;2023-09-12T02:55:00;19.70;99.90
19906;DHT22;10115;50.906;4.438;2023-09-12T02:57:26;19.70;99.90
19906;DHT22;10115;50.906;4.438;2023-09-12T02:59:52;19.70;99.90
19906;DHT22;10115;50.906;4.438;2023-09-12T03:02:17;19.60;99.90
19906;DHT22;10115;50.906;4.438;2023-09-12T03:04:43;19.50;99.90
19906;DHT22;10115;50.906;4.438;2023-09-12T03:07:09;19.60;99.90
19906;DHT22;10115;50.906;4.438;2023-09-12T03:09:34;19.70;99.90
19906;DHT22;10115;50.906;4.438;2023-09-12T03:12:03;19.70;99.90
19906;DHT22;10115;50.906;4.438;2023-09-12T03:14:29;19.70;99.90
19906;DHT22;10115;50.906;4.438;2023-09-12T03:16:55;19.70;99.90
19906;DHT22;10115;50.906;4.438;2023-09-12T03:19:21;19.60;99.90
19906;DHT22;10115;50.906;4.438;2023-09-12T03:21:47;19.60;99.90
19906;DHT22;10115;50.906;4.438;2023-09-12T03:24:13;19.70;99.90
19906;DHT22;10115;50.906;4.438;2023-09-12T03:26:39;19.60;99.90
19906;DHT22;10115;50.906;4.438;2023-09-12T03:29:04;19.70;99.90
19906;DHT22;10115;50.906;4.438;2023-09-12T03:31:30;19.70;99.90
19906;DHT22;10115;50.906;4.438;2023-09-12T03:33:56;19.80;99.90
19906;DHT22;10115;50.906;4.438;2023-09-12T03:36:22;19.90;99.90
19906;DHT22;10115;50.906;4.438;2023-09-12T03:38:47;19.90;99.90
19906;DHT22;10115;50.906;4.438;2023-09-12T03:41:13;19.90;99.90
19906;DHT22;10115;50.906;4.438;2023-09-12T03:43:39;20.00;99.90
19906;DHT22;10115;50.906;4.438;2023-09-12T03:46:04;20.20;99.90
19906;DHT22;10115;50.906;4.438;2023-09-12T03:48:30;20.20;99.90
19906;DHT22;10115;50.906;4.438;2023-09-12T03:50:57;20.30;99.90
19906;DHT22;10115;50.906;4.438;2023-09-12T03:53:23;20.40;99.90
19906;DHT22;10115;50.906;4.438;2023-09-12T03:55:48;20.50;99.90
19906;DHT22;10115;50.906;4.438;2023-09-12T03:58:14;20.40;99.90
19906;DHT22;10115;50.906;4.438;2023-09-12T04:00:39;20.40;99.90
19906;DHT22;10115;50.906;4.438;2023-09-12T04:03:05;20.50;99.90
19906;DHT22;10115;50.906;4.438;2023-09-12T04:05:31;20.50;99.90
19906;DHT22;10115;50.906;4.438;2023-09-12T04:07:57;20.50;99.90
19906;DHT22;10115;50.906;4.438;2023-09-12T04:10:22;20.60;99.90
19906;DHT22;10115;50.906;4.438;2023-09-12T04:12:48;20.60;99.90
19906;DHT22;10115;50.906;4.438;2023-09-12T04:15:14;20.60;99.90
19906;DHT22;10115;50.906;4.438;2023-09-12T04:17:39;20.50;99.90
19906;DHT22;10115;50.906;4.438;2023-09-12T04:20:06;20.30;99.90
19906;DHT22;10115;50.906;4.438;2023-09-12T04:22:32;20.20;99.90
19906;DHT22;10115;50.906;4.438;2023-09-12T04:24:58;20.20;99.90
19906;DHT22;10115;50.906;4.438;2023-09-12T04:27:23;20.40;99.90
19906;DHT22;10115;50.906;4.438;2023-09-12T04:29:49;20.40;99.90
19906;DHT22;10115;50.906;4.438;2023-09-12T04:32:15;20.40;99.90
19906;DHT22;10115;50.906;4.438;2023-09-12T04:34:42;20.40;99.90
19906;DHT22;10115;50.906;4.438;2023-09-12T04:37:08;20.40;99.90
19906;DHT22;10115;50.906;4.438;2023-09-12T04:39:34;20.40;99.90
19906;DHT22;10115;50.906;4.438;2023-09-12T04:41:59;20.40;99.90
19906;DHT22;10115;50.906;4.438;2023-09-12T04:44:25;20.50;99.90
19906;DHT22;10115;50.906;4.438;2023-09-12T04:46:51;20.40;99.90
19906;DHT22;10115;50.906;4.438;2023-09-12T04:49:16;20.20;99.90
19906;DHT22;10115;50.906;4.438;2023-09-12T04:51:42;20.20;99.90
19906;DHT22;10115;50.906;4.438;2023-09-12T04:54:08;20.30;99.90
19906;DHT22;10115;50.906;4.438;2023-09-12T04:56:34;20.30;99.90
19906;DHT22;10115;50.906;4.438;2023-09-12T04:58:59;20.20;99.90
19906;DHT22;10115;50.906;4.438;2023-09-12T05:01:25;20.20;99.90
19906;DHT22;10115;50.906;4.438;2023-09-12T05:03:51;20.20;99.90
19906;DHT22;10115;50.906;4.438;2023-09-12T05:06:17;20.10;99.90
19906;DHT22;10115;50.906;4.438;2023-09-12T05:08:43;20.20;99.90
19906;DHT22;10115;50.906;4.438;2023-09-12T05:11:09;20.20;99.90
19906;DHT22;10115;50.906;4.438;2023-09-12T05:13:34;20.10;99.90
19906;DHT22;10115;50.906;4.438;2023-09-12T05:16:00;20.10;99.90
19906;DHT22;10115;50.906;4.438;2023-09-12T05:18:26;20.10;99.90
19906;DHT22;10115;50.906;4.438;2023-09-12T05:20:51;20.10;99.90
19906;DHT22;10115;50.906;4.438;2023-09-12T05:23:17;20.20;99.90
19906;DHT22;10115;50.906;4.438;2023-09-12T05:25:42;20.20;99.90
19906;DHT22;10115;50.906;4.438;2023-09-12T05:28:08;20.20;99.90
19906;DHT22;10115;50.906;4.438;2023-09-12T05:30:34;20.10;99.90
19906;DHT22;10115;50.906;4.438;2023-09-12T05:33:01;20.10;99.90
19906;DHT22;10115;50.906;4.438;2023-09-12T05:35:26;20.10;99.90
19906;DHT22;10115;50.906;4.438;2023-09-12T05:37:52;20.20;99.90
19906;DHT22;10115;50.906;4.438;2023-09-12T05:40:18;20.20;99.90
19906;DHT22;10115;50.906;4.438;2023-09-12T05:42:44;20.20;99.90
19906;DHT22;10115;50.906;4.438;2023-09-12T05:45:09;20.20;99.90
19906;DHT22;10115;50.906;4.438;2023-09-12T05:47:35;20.20;99.90
19906;DHT22;10115;50.906;4.438;2023-09-12T05:50:01;20.10;99.90
19906;DHT22;10115;50.906;4.438;2023-09-12T05:52:31;20.10;99.90
19906;DHT22;10115;50.906;4.438;2023-09-12T05:54:56;20.20;99.90
19906;DHT22;10115;50.906;4.438;2023-09-12T05:57:22;20.20;99.90
19906;DHT22;10115;50.906;4.438;2023-09-12T05:59:48;20.10;99.90
19906;DHT22;10115;50.906;4.438;2023-09-12T06:02:13;20.20;99.90
19906;DHT22;10115;50.906;4.438;2023-09-12T06:04:39;20.10;99.90
19906;DHT22;10115;50.906;4.438;2023-09-12T06:07:05;20.00;99.90
19906;DHT22;10115;50.906;4.438;2023-09-12T06:09:30;20.10;99.90
19906;DHT22;10115;50.906;4.438;2023-09-12T06:11:56;20.10;99.90
19906;DHT22;10115;50.906;4.438;2023-09-12T06:14:22;20.10;99.90
19906;DHT22;10115;50.906;4.438;2023-09-12T06:16:48;20.10;99.90
19906;DHT22;10115;50.906;4.438;2023-09-12T06:19:14;20.20;99.90
19906;DHT22;10115;50.906;4.438;2023-09-12T06:21:40;20.20;99.90
19906;DHT22;10115;50.906;4.438;2023-09-12T06:24:15;20.30;99.90
19906;DHT22;10115;50.906;4.438;2023-09-12T06:26:41;20.40;99.90
19906;DHT22;10115;50.906;4.438;2023-09-12T06:29:07;20.40;99.90
19906;DHT22;10115;50.906;4.438;2023-09-12T06:31:32;20.60;99.90
19906;DHT22;10115;50.906;4.438;2023-09-12T06:33:58;20.70;99.90
19906;DHT22;10115;50.906;4.438;2023-09-12T06:36:27;20.40;99.90
19906;DHT22;10115;50.906;4.438;2023-09-12T06:38:58;20.50;99.90
19906;DHT22;10115;50.906;4.438;2023-09-12T06:41:24;20.70;99.90
19906;DHT22;10115;50.906;4.438;2023-09-12T06:43:50;20.80;99.90
19906;DHT22;10115;50.906;4.438;2023-09-12T06:46:16;21.00;99.90
19906;DHT22;10115;50.906;4.438;2023-09-12T06:48:45;21.20;99.90
19906;DHT22;10115;50.906;4.438;2023-09-12T06:51:11;21.20;99.90
19906;DHT22;10115;50.906;4.438;2023-09-12T06:53:38;21.30;99.90
19906;DHT22;10115;50.906;4.438;2023-09-12T06:56:04;21.40;99.90
19906;DHT22;10115;50.906;4.438;2023-09-12T06:58:30;21.40;99.90
19906;DHT22;10115;50.906;4.438;2023-09-12T07:01:01;21.10;99.90
19906;DHT22;10115;50.906;4.438;2023-09-12T07:03:26;20.80;99.90
19906;DHT22;10115;50.906;4.438;2023-09-12T07:05:52;20.50;99.90
19906;DHT22;10115;50.906;4.438;2023-09-12T07:08:17;20.70;99.90
19906;DHT22;10115;50.906;4.438;2023-09-12T07:10:44;21.00;99.90
19906;DHT22;10115;50.906;4.438;2023-09-12T07:13:11;20.90;99.90
19906;DHT22;10115;50.906;4.438;2023-09-12T07:15:37;21.00;99.90
19906;DHT22;10115;50.906;4.438;2023-09-12T07:18:03;21.10;99.90
19906;DHT22;10115;50.906;4.438;2023-09-12T07:20:29;20.90;99.90
19906;DHT22;10115;50.906;4.438;2023-09-12T07:22:55;20.60;99.90
19906;DHT22;10115;50.906;4.438;2023-09-12T07:25:21;20.70;99.90
19906;DHT22;10115;50.906;4.438;2023-09-12T07:27:51;20.60;99.90
19906;DHT22;10115;50.906;4.438;2023-09-12T07:30:17;20.50;99.90
19906;DHT22;10115;50.906;4.438;2023-09-12T07:32:44;20.50;99.90
19906;DHT22;10115;50.906;4.438;2023-09-12T07:35:09;20.40;99.90
19906;DHT22;10115;50.906;4.438;2023-09-12T07:37:35;20.50;99.90
19906;DHT22;10115;50.906;4.438;2023-09-12T07:40:01;20.50;99.90
19906;DHT22;10115;50.906;4.438;2023-09-12T07:42:27;20.70;99.90
19906;DHT22;10115;50.906;4.438;2023-09-12T07:44:53;20.80;99.90
19906;DHT22;10115;50.906;4.438;2023-09-12T07:47:19;21.00;99.90
19906;DHT22;10115;50.906;4.438;2023-09-12T07:49:44;21.00;99.90
19906;DHT22;10115;50.906;4.438;2023-09-12T07:52:10;21.00;99.90
19906;DHT22;10115;50.906;4.438;2023-09-12T07:54:36;21.00;99.90
19906;DHT22;10115;50.906;4.438;2023-09-12T07:57:02;21.20;99.90
19906;DHT22;10115;50.906;4.438;2023-09-12T07:59:28;21.10;99.90
19906;DHT22;10115;50.906;4.438;2023-09-12T08:01:54;21.40;99.90
19906;DHT22;10115;50.906;4.438;2023-09-12T08:04:20;21.70;99.90
19906;DHT22;10115;50.906;4.438;2023-09-12T08:06:45;21.50;99.90
19906;DHT22;10115;50.906;4.438;2023-09-12T08:09:11;21.70;99.90
19906;DHT22;10115;50.906;4.438;2023-09-12T08:11:37;21.70;99.90
19906;DHT22;10115;50.906;4.438;2023-09-12T08:14:02;21.20;99.90
19906;DHT22;10115;50.906;4.438;2023-09-12T08:16:28;21.00;99.90
19906;DHT22;10115;50.906;4.438;2023-09-12T08:18:54;21.00;99.90
19906;DHT22;10115;50.906;4.438;2023-09-12T08:21:19;21.20;99.90
19906;DHT22;10115;50.906;4.438;2023-09-12T08:23:45;21.30;99.90
19906;DHT22;10115;50.906;4.438;2023-09-12T08:26:11;21.50;99.90
19906;DHT22;10115;50.906;4.438;2023-09-12T08:28:36;21.70;99.90
19906;DHT22;10115;50.906;4.438;2023-09-12T08:31:02;22.00;99.90
19906;DHT22;10115;50.906;4.438;2023-09-12T08:33:28;22.00;99.90
19906;DHT22;10115;50.906;4.438;2023-09-12T08:35:53;21.90;99.90
19906;DHT22;10115;50.906;4.438;2023-09-12T08:38:19;21.80;99.90
19906;DHT22;10115;50.906;4.438;2023-09-12T08:40:51;21.70;99.90
19906;DHT22;10115;50.906;4.438;2023-09-12T08:43:18;21.90;99.90
19906;DHT22;10115;50.906;4.438;2023-09-12T08:45:44;22.20;99.90
19906;DHT22;10115;50.906;4.438;2023-09-12T08:48:11;22.10;99.90
19906;DHT22;10115;50.906;4.438;2023-09-12T08:50:38;22.10;99.90
19906;DHT22;10115;50.906;4.438;2023-09-12T08:53:04;21.80;99.90
19906;DHT22;10115;50.906;4.438;2023-09-12T08:55:31;21.90;99.90
19906;DHT22;10115;50.906;4.438;2023-09-12T08:58:00;22.00;99.90
19906;DHT22;10115;50.906;4.438;2023-09-12T09:00:28;22.30;99.90
19906;DHT22;10115;50.906;4.438;2023-09-12T09:02:54;22.20;99.90
19906;DHT22;10115;50.906;4.438;2023-09-12T09:05:21;22.50;99.90
19906;DHT22;10115;50.906;4.438;2023-09-12T09:07:49;22.90;99.90
19906;DHT22;10115;50.906;4.438;2023-09-12T09:10:19;23.00;99.90
19906;DHT22;10115;50.906;4.438;2023-09-12T09:12:46;23.00;99.90
19906;DHT22;10115;50.906;4.438;2023-09-12T09:17:47;22.70;99.90
19906;DHT22;10115;50.906;4.438;2023-09-12T09:20:27;22.70;99.90
19906;DHT22;10115;50.906;4.438;2023-09-12T09:22:57;22.70;99.90
19906;DHT22;10115;50.906;4.438;2023-09-12T09:25:22;22.90;99.90
19906;DHT22;10115;50.906;4.438;2023-09-12T09:27:48;23.40;99.90
19906;DHT22;10115;50.906;4.438;2023-09-12T09:30:14;23.60;99.90
19906;DHT22;10115;50.906;4.438;2023-09-12T09:32:40;23.70;99.90
19906;DHT22;10115;50.906;4.438;2023-09-12T09:35:06;23.20;99.90
19906;DHT22;10115;50.906;4.438;2023-09-12T09:37:32;23.30;99.90
19906;DHT22;10115;50.906;4.438;2023-09-12T09:39:58;23.30;99.90
19906;DHT22;10115;50.906;4.438;2023-09-12T09:42:24;23.20;99.90
19906;DHT22;10115;50.906;4.438;2023-09-12T09:44:54;23.30;99.90
19906;DHT22;10115;50.906;4.438;2023-09-12T09:47:19;23.50;99.90
19906;DHT22;10115;50.906;4.438;2023-09-12T09:49:45;23.60;99.90
19906;DHT22;10115;50.906;4.438;2023-09-12T09:52:12;23.60;99.90
19906;DHT22;10115;50.906;4.438;2023-09-12T09:54:43;23.50;99.90
19906;DHT22;10115;50.906;4.438;2023-09-12T09:57:10;23.90;99.90
19906;DHT22;10115;50.906;4.438;2023-09-12T09:59:36;24.00;99.90
19906;DHT22;10115;50.906;4.438;2023-09-12T10:02:03;23.80;99.90
19906;DHT22;10115;50.906;4.438;2023-09-12T10:04:32;23.80;99.90
19906;DHT22;10115;50.906;4.438;2023-09-12T10:06:58;23.80;99.90
19906;DHT22;10115;50.906;4.438;2023-09-12T10:09:26;24.10;99.90
19906;DHT22;10115;50.906;4.438;2023-09-12T10:11:55;24.70;99.90
19906;DHT22;10115;50.906;4.438;2023-09-12T10:14:22;24.40;99.90
19906;DHT22;10115;50.906;4.438;2023-09-12T10:16:49;24.30;99.90
19906;DHT22;10115;50.906;4.438;2023-09-12T10:19:25;24.60;99.90
19906;DHT22;10115;50.906;4.438;2023-09-12T10:21:55;24.90;99.90
19906;DHT22;10115;50.906;4.438;2023-09-12T10:24:25;24.80;99.90
19906;DHT22;10115;50.906;4.438;2023-09-12T10:26:52;24.80;99.90
19906;DHT22;10115;50.906;4.438;2023-09-12T10:29:18;24.60;99.90
19906;DHT22;10115;50.906;4.438;2023-09-12T10:31:45;24.30;99.90
19906;DHT22;10115;50.906;4.438;2023-09-12T10:34:13;24.20;99.90
19906;DHT22;10115;50.906;4.438;2023-09-12T10:36:41;24.50;99.90
19906;DHT22;10115;50.906;4.438;2023-09-12T10:39:08;25.00;99.90
19906;DHT22;10115;50.906;4.438;2023-09-12T10:41:37;24.80;99.90
19906;DHT22;10115;50.906;4.438;2023-09-12T10:44:09;24.70;99.90
19906;DHT22;10115;50.906;4.438;2023-09-12T10:46:38;24.60;99.90
19906;DHT22;10115;50.906;4.438;2023-09-12T10:49:09;24.20;99.90
19906;DHT22;10115;50.906;4.438;2023-09-12T10:51:40;24.10;99.90
19906;DHT22;10115;50.906;4.438;2023-09-12T10:54:07;24.20;99.90
19906;DHT22;10115;50.906;4.438;2023-09-12T10:56:34;24.40;99.90
19906;DHT22;10115;50.906;4.438;2023-09-12T11:01:42;24.70;99.90
19906;DHT22;10115;50.906;4.438;2023-09-12T11:06:49;25.20;99.90
19906;DHT22;10115;50.906;4.438;2023-09-12T11:11:44;25.80;99.90
19906;DHT22;10115;50.906;4.438;2023-09-12T11:14:12;26.00;99.90
19906;DHT22;10115;50.906;4.438;2023-09-12T11:16:38;26.00;99.90
19906;DHT22;10115;50.906;4.438;2023-09-12T11:19:17;25.70;99.90
19906;DHT22;10115;50.906;4.438;2023-09-12T11:21:48;25.90;99.90
19906;DHT22;10115;50.906;4.438;2023-09-12T11:24:15;26.30;99.90
19906;DHT22;10115;50.906;4.438;2023-09-12T11:27:01;26.10;99.90
19906;DHT22;10115;50.906;4.438;2023-09-12T11:29:35;26.40;99.90
19906;DHT22;10115;50.906;4.438;2023-09-12T11:32:01;25.60;99.90
19906;DHT22;10115;50.906;4.438;2023-09-12T11:34:30;25.00;99.90
19906;DHT22;10115;50.906;4.438;2023-09-12T11:36:58;24.80;99.90
19906;DHT22;10115;50.906;4.438;2023-09-12T11:39:33;25.00;99.90
19906;DHT22;10115;50.906;4.438;2023-09-12T11:42:01;24.80;99.90
19906;DHT22;10115;50.906;4.438;2023-09-12T11:44:27;24.80;99.90
19906;DHT22;10115;50.906;4.438;2023-09-12T11:46:54;25.10;99.90
19906;DHT22;10115;50.906;4.438;2023-09-12T11:49:20;25.40;99.90
19906;DHT22;10115;50.906;4.438;2023-09-12T11:51:47;26.00;99.90
19906;DHT22;10115;50.906;4.438;2023-09-12T11:54:26;26.70;99.90
19906;DHT22;10115;50.906;4.438;2023-09-12T11:56:52;26.60;99.90
19906;DHT22;10115;50.906;4.438;2023-09-12T11:59:31;26.00;99.90
19906;DHT22;10115;50.906;4.438;2023-09-12T12:01:57;26.30;99.90
19906;DHT22;10115;50.906;4.438;2023-09-12T12:04:24;26.20;99.90
19906;DHT22;10115;50.906;4.438;2023-09-12T12:06:51;25.90;99.90
19906;DHT22;10115;50.906;4.438;2023-09-12T12:09:17;25.30;99.90
19906;DHT22;10115;50.906;4.438;2023-09-12T12:11:45;25.40;99.90
19906;DHT22;10115;50.906;4.438;2023-09-12T12:14:15;25.50;99.90
19906;DHT22;10115;50.906;4.438;2023-09-12T12:16:42;25.80;99.90
19906;DHT22;10115;50.906;4.438;2023-09-12T12:19:09;26.30;99.90
19906;DHT22;10115;50.906;4.438;2023-09-12T12:21:35;26.70;99.90
19906;DHT22;10115;50.906;4.438;2023-09-12T12:24:01;27.40;99.90
19906;DHT22;10115;50.906;4.438;2023-09-12T12:26:29;27.00;99.90
19906;DHT22;10115;50.906;4.438;2023-09-12T12:28:55;27.30;99.90
19906;DHT22;10115;50.906;4.438;2023-09-12T12:31:21;27.80;99.90
19906;DHT22;10115;50.906;4.438;2023-09-12T12:33:50;27.30;99.90
19906;DHT22;10115;50.906;4.438;2023-09-12T12:36:16;27.30;99.90
19906;DHT22;10115;50.906;4.438;2023-09-12T12:38:42;26.90;99.90
19906;DHT22;10115;50.906;4.438;2023-09-12T12:41:09;27.00;99.90
19906;DHT22;10115;50.906;4.438;2023-09-12T12:43:35;26.90;99.90
19906;DHT22;10115;50.906;4.438;2023-09-12T12:46:01;26.80;99.90
19906;DHT22;10115;50.906;4.438;2023-09-12T12:48:35;26.30;99.90
19906;DHT22;10115;50.906;4.438;2023-09-12T12:51:18;26.10;99.90
19906;DHT22;10115;50.906;4.438;2023-09-12T12:54:04;26.60;99.90
19906;DHT22;10115;50.906;4.438;2023-09-12T12:56:31;27.00;99.90
19906;DHT22;10115;50.906;4.438;2023-09-12T12:59:00;26.50;99.90
19906;DHT22;10115;50.906;4.438;2023-09-12T13:01:29;26.20;99.90
19906;DHT22;10115;50.906;4.438;2023-09-12T13:03:54;25.70;99.90
19906;DHT22;10115;50.906;4.438;2023-09-12T13:06:22;25.80;99.90
19906;DHT22;10115;50.906;4.438;2023-09-12T13:08:49;25.90;99.90
19906;DHT22;10115;50.906;4.438;2023-09-12T13:11:16;25.70;99.90
19906;DHT22;10115;50.906;4.438;2023-09-12T13:13:42;25.60;99.90
19906;DHT22;10115;50.906;4.438;2023-09-12T13:16:10;26.10;99.90
19906;DHT22;10115;50.906;4.438;2023-09-12T13:18:37;26.40;99.90
19906;DHT22;10115;50.906;4.438;2023-09-12T13:21:04;25.90;99.90
19906;DHT22;10115;50.906;4.438;2023-09-12T13:23:30;25.60;99.90
19906;DHT22;10115;50.906;4.438;2023-09-12T13:25:56;25.70;99.90
19906;DHT22;10115;50.906;4.438;2023-09-12T13:28:22;25.90;99.90
19906;DHT22;10115;50.906;4.438;2023-09-12T13:30:51;26.10;99.90
19906;DHT22;10115;50.906;4.438;2023-09-12T13:33:17;26.40;99.90
19906;DHT22;10115;50.906;4.438;2023-09-12T13:35:42;26.70;99.90
19906;DHT22;10115;50.906;4.438;2023-09-12T13:38:08;26.80;99.90
19906;DHT22;10115;50.906;4.438;2023-09-12T13:40:37;26.80;99.90
19906;DHT22;10115;50.906;4.438;2023-09-12T13:43:04;26.50;99.90
19906;DHT22;10115;50.906;4.438;2023-09-12T13:45:30;25.60;99.90
19906;DHT22;10115;50.906;4.438;2023-09-12T13:47:55;25.50;99.90
19906;DHT22;10115;50.906;4.438;2023-09-12T13:50:21;25.20;99.90
19906;DHT22;10115;50.906;4.438;2023-09-12T13:52:48;24.90;99.90
19906;DHT22;10115;50.906;4.438;2023-09-12T13:55:14;24.90;99.90
19906;DHT22;10115;50.906;4.438;2023-09-12T13:57:41;24.90;99.90
19906;DHT22;10115;50.906;4.438;2023-09-12T14:00:08;25.20;99.90
19906;DHT22;10115;50.906;4.438;2023-09-12T14:02:33;25.40;99.90
19906;DHT22;10115;50.906;4.438;2023-09-12T14:04:59;25.80;99.90
19906;DHT22;10115;50.906;4.438;2023-09-12T14:07:26;26.30;99.90
19906;DHT22;10115;50.906;4.438;2023-09-12T14:09:52;26.00;99.90
19906;DHT22;10115;50.906;4.438;2023-09-12T14:12:24;26.00;99.90
19906;DHT22;10115;50.906;4.438;2023-09-12T14:14:51;26.00;99.90
19906;DHT22;10115;50.906;4.438;2023-09-12T14:17:17;25.80;99.90
19906;DHT22;10115;50.906;4.438;2023-09-12T14:19:43;25.40;99.90
19906;DHT22;10115;50.906;4.438;2023-09-12T14:22:08;25.40;99.90
19906;DHT22;10115;50.906;4.438;2023-09-12T14:24:34;25.40;99.90
19906;DHT22;10115;50.906;4.438;2023-09-12T14:27:00;25.70;99.90
19906;DHT22;10115;50.906;4.438;2023-09-12T14:29:26;25.70;99.90
19906;DHT22;10115;50.906;4.438;2023-09-12T14:31:55;25.70;99.90
19906;DHT22;10115;50.906;4.438;2023-09-12T14:34:26;25.10;99.90
19906;DHT22;10115;50.906;4.438;2023-09-12T14:36:57;24.40;99.90
19906;DHT22;10115;50.906;4.438;2023-09-12T14:39:23;24.30;99.90
19906;DHT22;10115;50.906;4.438;2023-09-12T14:41:49;24.00;99.90
19906;DHT22;10115;50.906;4.438;2023-09-12T14:44:24;23.90;99.90
19906;DHT22;10115;50.906;4.438;2023-09-12T14:46:49;24.00;99.90
19906;DHT22;10115;50.906;4.438;2023-09-12T14:49:15;23.80;99.90
19906;DHT22;10115;50.906;4.438;2023-09-12T14:51:42;23.70;99.90
19906;DHT22;10115;50.906;4.438;2023-09-12T14:54:08;23.90;99.90
19906;DHT22;10115;50.906;4.438;2023-09-12T14:56:34;24.30;99.90
19906;DHT22;10115;50.906;4.438;2023-09-12T14:59:01;24.70;99.90
19906;DHT22;10115;50.906;4.438;2023-09-12T15:01:26;24.40;99.90
19906;DHT22;10115;50.906;4.438;2023-09-12T15:03:53;23.90;99.90
19906;DHT22;10115;50.906;4.438;2023-09-12T15:06:19;23.80;99.90
19906;DHT22;10115;50.906;4.438;2023-09-12T15:08:45;23.60;99.90
19906;DHT22;10115;50.906;4.438;2023-09-12T15:11:11;23.70;99.90
19906;DHT22;10115;50.906;4.438;2023-09-12T15:13:37;23.70;99.90
19906;DHT22;10115;50.906;4.438;2023-09-12T15:16:03;23.60;99.90
19906;DHT22;10115;50.906;4.438;2023-09-12T15:18:30;23.70;99.90
19906;DHT22;10115;50.906;4.438;2023-09-12T15:20:55;23.70;99.90
19906;DHT22;10115;50.906;4.438;2023-09-12T15:23:21;23.60;99.90
19906;DHT22;10115;50.906;4.438;2023-09-12T15:25:49;23.60;99.90
19906;DHT22;10115;50.906;4.438;2023-09-12T15:28:14;23.50;99.90
19906;DHT22;10115;50.906;4.438;2023-09-12T15:30:40;23.50;99.90
19906;DHT22;10115;50.906;4.438;2023-09-12T15:33:06;23.50;99.90
19906;DHT22;10115;50.906;4.438;2023-09-12T15:35:31;23.40;99.90
19906;DHT22;10115;50.906;4.438;2023-09-12T15:37:57;23.40;99.90
19906;DHT22;10115;50.906;4.438;2023-09-12T15:40:23;23.20;99.90
19906;DHT22;10115;50.906;4.438;2023-09-12T15:42:49;23.10;99.90
19906;DHT22;10115;50.906;4.438;2023-09-12T15:45:15;23.20;99.90
19906;DHT22;10115;50.906;4.438;2023-09-12T15:47:43;23.20;99.90